Time;durP1;ratioP1;P1;durP2;ratioP2;P2;SDS_P1;SDS_P2;PMS_P1;PMS_P2;Temp;Humidity;BMP_temperature;BMP_pressure;BME280_temperature;BME280_humidity;BME280_pressure;Samples;Min_cycle;Max_cycle;Signal;HPM_P1;HPM_P2
2022/06/17 00:01:11;;;;;;;1.95;0.90;;;22.00;37.40;;;;;;2634128;52;20973;-92
2022/06/17 00:03:37;;;;;;;2.33;1.10;;;21.90;37.40;;;;;;2375882;53;22312;-91
2022/06/17 00:06:04;;;;;;;2.37;1.00;;;21.90;37.50;;;;;;2630744;52;20917;-92
2022/06/17 00:08:44;;;;;;;2.03;0.95;;;21.80;37.50;;;;;;2385293;53;20981;-90
2022/06/17 00:11:15;;;;;;;2.65;1.30;;;21.80;37.80;;;;;;2381019;53;20918;-88
2022/06/17 00:13:42;;;;;;;2.22;1.08;;;21.70;37.70;;;;;;2375398;53;21188;-91
2022/06/17 00:16:12;;;;;;;1.92;0.80;;;21.70;37.60;;;;;;2629679;52;20978;-88
2022/06/17 00:18:39;;;;;;;2.72;1.20;;;21.60;38.00;;;;;;2630314;52;20928;-90
2022/06/17 00:21:05;;;;;;;1.52;0.73;;;21.60;37.90;;;;;;2631817;52;20929;-88
2022/06/17 00:23:32;;;;;;;2.45;1.10;;;21.60;38.00;;;;;;2631070;52;21645;-91
2022/06/17 00:25:58;;;;;;;2.08;0.90;;;21.50;38.00;;;;;;2382468;53;20982;-91
2022/06/17 00:28:24;;;;;;;2.15;1.12;;;21.50;38.00;;;;;;2629362;52;20970;-88
2022/06/17 00:30:51;;;;;;;2.55;1.23;;;21.40;37.90;;;;;;2374824;53;20900;-90
2022/06/17 00:33:18;;;;;;;2.30;1.17;;;21.40;38.10;;;;;;2632209;52;20965;-92
2022/06/17 00:35:54;;;;;;;2.40;1.00;;;21.30;38.20;;;;;;2378721;53;21835;-90
2022/06/17 00:38:22;;;;;;;2.60;0.93;;;21.30;38.60;;;;;;2376501;53;21645;-89
2022/06/17 00:40:49;;;;;;;2.40;1.08;;;21.30;38.40;;;;;;2378883;53;20894;-92
2022/06/17 00:43:29;;;;;;;2.05;0.98;;;21.20;38.50;;;;;;2634460;52;20942;-91
2022/06/17 00:52:47;;;;;;;2.17;1.00;;;21.30;39.40;;;;;;2631397;52;21723;-90
2022/06/17 00:56:45;;;;;;;1.35;0.75;;;21.10;38.90;;;;;;2622012;52;20926;-90
2022/06/17 00:59:15;;;;;;;2.35;0.88;;;21.00;38.30;;;;;;2374997;53;20984;-89
2022/06/17 01:01:53;;;;;;;3.37;1.00;;;20.90;38.40;;;;;;2385562;53;22043;-88
2022/06/17 01:05:03;;;;;;;2.25;1.02;;;20.90;38.80;;;;;;2378182;53;20917;-91
2022/06/17 01:07:42;;;;;;;2.10;1.20;;;20.80;39.20;;;;;;2380503;53;21015;-87
2022/06/17 01:10:09;;;;;;;1.83;0.80;;;20.70;38.80;;;;;;2624285;52;21060;-89
2022/06/17 01:13:20;;;;;;;2.50;1.05;;;20.70;38.90;;;;;;2628894;52;21952;-89
2022/06/17 01:15:48;;;;;;;2.47;1.13;;;20.80;39.60;;;;;;2629978;52;21065;-90
2022/06/17 01:18:14;;;;;;;3.78;1.35;;;20.60;39.20;;;;;;2354448;53;20934;-88
2022/06/17 01:20:40;;;;;;;3.50;1.20;;;20.50;39.20;;;;;;2382359;53;20977;-89
2022/06/17 01:23:12;;;;;;;2.50;1.20;;;20.50;39.30;;;;;;2624290;52;21626;-89
2022/06/17 01:25:43;;;;;;;2.15;1.08;;;20.50;39.70;;;;;;2628021;52;20981;-90
2022/06/17 01:28:11;;;;;;;1.85;0.90;;;20.50;39.70;;;;;;2630134;52;20988;-89
2022/06/17 01:30:46;;;;;;;2.87;1.25;;;20.40;39.60;;;;;;2378669;53;20945;-89
2022/06/17 01:33:22;;;;;;;2.40;1.23;;;20.40;40.00;;;;;;2368389;53;20972;-90
2022/06/17 01:36:07;;;;;;;2.50;1.12;;;20.40;40.10;;;;;;2369129;53;20902;-89
2022/06/17 01:38:34;;;;;;;3.03;1.27;;;20.40;40.40;;;;;;2628792;52;20933;-88
2022/06/17 01:41:01;;;;;;;2.30;1.20;;;20.30;39.90;;;;;;2374574;53;20958;-89
2022/06/17 01:43:53;;;;;;;2.78;1.10;;;20.30;40.00;;;;;;2633479;52;20954;-91
2022/06/17 01:46:23;;;;;;;2.05;1.00;;;20.20;40.40;;;;;;2631194;52;20927;-91
2022/06/17 01:50:27;;;;;;;2.80;1.30;;;20.30;40.30;;;;;;2376976;53;21657;-89
2022/06/17 01:53:00;;;;;;;2.73;1.13;;;20.20;40.90;;;;;;2634125;52;20981;-90
2022/06/17 01:55:31;;;;;;;2.12;1.10;;;20.10;40.40;;;;;;2620704;52;21017;-88
2022/06/17 01:58:07;;;;;;;2.40;1.10;;;20.20;40.50;;;;;;2362046;53;20954;-87
2022/06/17 02:00:34;;;;;;;2.25;0.93;;;20.10;40.60;;;;;;2628329;52;20977;-90
2022/06/17 02:03:04;;;;;;;2.70;1.23;;;20.10;40.60;;;;;;2374738;53;20894;-90
2022/06/17 02:05:33;;;;;;;3.60;1.30;;;20.00;40.60;;;;;;2375862;53;21296;-90
2022/06/17 02:08:01;;;;;;;2.08;1.05;;;20.00;40.60;;;;;;2382928;53;20859;-90
2022/06/17 02:10:35;;;;;;;2.55;1.08;;;20.10;40.70;;;;;;2385645;53;20965;-92
2022/06/17 02:13:02;;;;;;;2.55;1.30;;;20.00;40.90;;;;;;2382068;53;20982;-88
2022/06/17 02:15:29;;;;;;;1.75;1.00;;;20.00;40.70;;;;;;2378883;53;20976;-89
2022/06/17 02:17:55;;;;;;;2.60;1.30;;;19.90;40.70;;;;;;2628334;52;21072;-90
2022/06/17 02:20:22;;;;;;;2.92;1.35;;;19.90;40.90;;;;;;2357406;53;21926;-89
2022/06/17 02:22:48;;;;;;;2.60;1.17;;;19.90;41.00;;;;;;2375788;53;20890;-88
2022/06/17 02:25:20;;;;;;;5.15;1.77;;;19.80;41.00;;;;;;2376080;53;20938;-88
2022/06/17 02:27:47;;;;;;;2.45;1.10;;;19.80;41.10;;;;;;2385855;53;21836;-90
2022/06/17 02:30:14;;;;;;;2.55;1.45;;;19.80;41.10;;;;;;2616003;52;21001;-89
2022/06/17 02:32:40;;;;;;;2.30;1.17;;;19.70;41.10;;;;;;2378452;53;20933;-91
2022/06/17 02:35:18;;;;;;;2.30;1.10;;;19.70;41.20;;;;;;2627002;52;20922;-91
2022/06/17 02:37:45;;;;;;;3.35;1.30;;;19.70;41.60;;;;;;2629710;52;21049;-87
2022/06/17 02:41:21;;;;;;;2.40;1.12;;;19.60;41.30;;;;;;2606740;52;21008;-91
2022/06/17 02:43:59;;;;;;;2.47;1.10;;;19.60;41.70;;;;;;2630700;52;20957;-92
2022/06/17 02:46:28;;;;;;;3.22;1.08;;;19.60;41.60;;;;;;2634873;52;20933;-89
2022/06/17 02:48:57;;;;;;;2.50;1.20;;;19.60;41.40;;;;;;2381397;53;20890;-89
2022/06/17 02:51:23;;;;;;;3.15;1.27;;;19.50;41.50;;;;;;2383142;53;21746;-89
2022/06/17 02:53:49;;;;;;;2.40;1.25;;;19.50;41.50;;;;;;2632326;52;22267;-90
2022/06/17 02:56:20;;;;;;;2.67;1.37;;;19.50;41.60;;;;;;2628618;52;21081;-88
2022/06/17 02:59:51;;;;;;;2.65;1.30;;;19.50;42.00;;;;;;2383078;53;21234;-88
2022/06/17 03:02:25;;;;;;;2.20;1.00;;;19.40;42.40;;;;;;2635831;52;20977;-90
2022/06/17 03:04:51;;;;;;;2.12;1.10;;;19.40;42.10;;;;;;2381964;53;21772;-90
2022/06/17 03:07:20;;;;;;;2.65;1.10;;;19.40;41.90;;;;;;2634245;52;22199;-88
2022/06/17 03:09:47;;;;;;;2.85;1.33;;;19.40;42.10;;;;;;2384177;53;21002;-89
2022/06/17 03:12:20;;;;;;;2.10;1.08;;;19.30;42.00;;;;;;2629693;52;22185;-90
2022/06/17 03:15:09;;;;;;;2.35;1.25;;;19.30;42.20;;;;;;2635041;52;21014;-88
2022/06/17 03:17:38;;;;;;;2.85;1.30;;;19.30;42.30;;;;;;2628924;52;21005;-91
2022/06/17 03:20:05;;;;;;;2.90;1.25;;;19.30;42.30;;;;;;2375883;53;21625;-89
2022/06/17 03:22:32;;;;;;;2.50;1.10;;;19.20;42.20;;;;;;2629482;52;20997;-92
2022/06/17 03:25:10;;;;;;;2.50;1.27;;;19.20;42.30;;;;;;2630858;52;21539;-92
2022/06/17 03:27:47;;;;;;;3.55;1.17;;;19.20;42.40;;;;;;2379604;53;20945;-89
2022/06/17 03:30:28;;;;;;;2.62;1.25;;;19.20;42.70;;;;;;2629221;52;20878;-91
2022/06/17 03:33:04;;;;;;;2.85;1.37;;;19.20;42.60;;;;;;2636126;52;21028;-89
2022/06/17 03:35:31;;;;;;;4.22;1.52;;;19.20;42.80;;;;;;2626924;52;20910;-91
2022/06/17 03:38:01;;;;;;;2.40;1.30;;;19.20;42.70;;;;;;2380337;53;21014;-88
2022/06/17 03:40:53;;;;;;;2.08;1.12;;;19.10;42.90;;;;;;2632089;52;21256;-89
2022/06/17 03:43:41;;;;;;;2.47;1.30;;;19.20;43.40;;;;;;2377669;53;21013;-89
2022/06/17 03:46:09;;;;;;;2.25;1.05;;;19.20;43.40;;;;;;2378010;53;20937;-87
2022/06/17 03:52:52;;;;;;;2.33;1.12;;;19.10;42.80;;;;;;2379124;53;20909;-89
2022/06/17 03:55:18;;;;;;;2.12;1.02;;;19.10;43.00;;;;;;2375460;53;20918;-90
2022/06/17 03:57:46;;;;;;;2.37;1.10;;;19.10;42.60;;;;;;2630060;52;21984;-91
2022/06/17 04:00:30;;;;;;;1.67;0.85;;;19.20;43.00;;;;;;2375874;53;21017;-92
2022/06/17 04:02:56;;;;;;;2.80;1.30;;;19.10;43.10;;;;;;2628286;52;20958;-90
2022/06/17 04:05:22;;;;;;;2.20;1.10;;;19.10;43.10;;;;;;2381875;53;21624;-90
2022/06/17 04:07:49;;;;;;;2.53;1.30;;;19.10;43.20;;;;;;2632989;52;21369;-91
2022/06/17 04:10:20;;;;;;;2.08;1.12;;;19.00;43.10;;;;;;2612468;52;21075;-90
2022/06/17 04:12:47;;;;;;;1.98;1.05;;;19.00;43.40;;;;;;2380733;53;20970;-91
2022/06/17 04:15:31;;;;;;;2.28;1.10;;;19.00;43.40;;;;;;2380626;53;20937;-88
2022/06/17 04:17:57;;;;;;;2.65;1.10;;;19.10;43.80;;;;;;2376994;53;21024;-91
2022/06/17 04:20:43;;;;;;;3.20;1.02;;;19.10;43.60;;;;;;2382014;53;21001;-92
2022/06/17 04:23:18;;;;;;;2.30;1.10;;;19.10;43.80;;;;;;2359739;53;20937;-90
2022/06/17 04:26:02;;;;;;;2.28;1.20;;;19.00;43.70;;;;;;2632815;52;20942;-90
2022/06/17 04:28:49;;;;;;;1.62;1.00;;;19.10;43.90;;;;;;2376314;53;20934;-90
2022/06/17 04:31:18;;;;;;;1.73;0.80;;;19.10;44.00;;;;;;2627464;52;22087;-92
2022/06/17 04:33:50;;;;;;;2.47;1.17;;;19.10;43.80;;;;;;2629101;52;20977;-89
2022/06/17 04:36:28;;;;;;;2.50;1.10;;;19.10;44.20;;;;;;2631721;52;21033;-89
2022/06/17 04:38:58;;;;;;;1.95;1.00;;;19.10;44.40;;;;;;2378091;53;20942;-89
2022/06/17 04:41:27;;;;;;;2.95;1.20;;;19.10;44.30;;;;;;2382171;53;20977;-91
2022/06/17 04:43:55;;;;;;;3.95;1.30;;;19.20;44.40;;;;;;2630225;52;20918;-91
2022/06/17 04:46:37;;;;;;;2.15;1.00;;;19.20;44.60;;;;;;2375499;53;20925;-93
2022/06/17 04:49:06;;;;;;;2.20;1.10;;;19.30;44.80;;;;;;2633880;52;20934;-91
2022/06/17 04:51:33;;;;;;;2.30;1.00;;;19.30;44.60;;;;;;2628740;52;20942;-89
2022/06/17 04:54:00;;;;;;;2.60;1.20;;;19.30;44.60;;;;;;2633451;52;20922;-91
2022/06/17 04:56:34;;;;;;;3.85;1.20;;;19.40;44.70;;;;;;2620407;52;20961;-92
2022/06/17 04:59:00;;;;;;;2.65;1.00;;;19.40;45.00;;;;;;2379167;53;20926;-90
2022/06/17 05:01:26;;;;;;;2.50;1.12;;;19.50;44.90;;;;;;2377248;53;20961;-91
2022/06/17 05:03:53;;;;;;;2.90;1.40;;;19.50;45.00;;;;;;2375826;53;20918;-90
2022/06/17 05:06:19;;;;;;;3.12;1.10;;;19.60;45.10;;;;;;2625414;52;21027;-92
2022/06/17 05:08:48;;;;;;;2.22;1.15;;;19.60;45.10;;;;;;2634577;52;20855;-91
2022/06/17 05:11:19;;;;;;;1.90;0.95;;;19.70;45.30;;;;;;2383277;53;21829;-92
2022/06/17 05:15:37;;;;;;;2.33;0.88;;;19.70;45.20;;;;;;2626247;52;20963;-93
2022/06/17 05:18:03;;;;;;;2.30;0.80;;;19.80;45.30;;;;;;2370557;53;20934;-92
2022/06/17 05:20:30;;;;;;;1.73;0.80;;;19.90;44.80;;;;;;2632204;52;20930;-93
2022/06/17 05:23:00;;;;;;;2.45;0.80;;;19.90;44.70;;;;;;2376486;53;20940;-93
2022/06/17 05:25:35;;;;;;;2.50;1.00;;;20.00;44.60;;;;;;2626270;52;20910;-89
2022/06/17 05:28:01;;;;;;;2.08;0.80;;;20.00;44.60;;;;;;2631612;52;20934;-90
2022/06/17 05:30:36;;;;;;;2.70;0.95;;;20.00;44.40;;;;;;2627910;52;20977;-88
2022/06/17 05:33:03;;;;;;;1.60;0.75;;;20.10;44.70;;;;;;2369365;53;20945;-89
2022/06/17 05:35:29;;;;;;;3.53;0.98;;;20.20;44.60;;;;;;2386863;53;21896;-87
2022/06/17 05:37:56;;;;;;;1.60;0.80;;;20.30;44.50;;;;;;2359300;53;20913;-88
2022/06/17 05:40:22;;;;;;;2.55;0.88;;;20.30;44.50;;;;;;2383163;53;22112;-89
2022/06/17 05:42:50;;;;;;;2.10;1.05;;;20.50;44.70;;;;;;2377644;53;21739;-90
2022/06/17 05:45:18;;;;;;;2.37;0.90;;;20.40;44.80;;;;;;2626393;52;21681;-91
2022/06/17 05:47:44;;;;;;;2.30;1.25;;;20.50;44.90;;;;;;2609654;52;20902;-89
2022/06/17 05:50:11;;;;;;;2.67;0.80;;;20.60;44.80;;;;;;2619566;52;20921;-88
2022/06/17 05:52:54;;;;;;;3.17;0.77;;;20.80;45.00;;;;;;2617860;52;21008;-89
2022/06/17 05:55:24;;;;;;;2.65;1.02;;;20.80;45.10;;;;;;2628705;52;21681;-88
2022/06/17 05:57:50;;;;;;;1.92;0.75;;;20.80;44.90;;;;;;2628506;52;21018;-90
2022/06/17 06:00:17;;;;;;;2.90;1.00;;;20.90;44.90;;;;;;2629929;52;21021;-89
2022/06/17 06:02:43;;;;;;;2.37;0.93;;;21.00;44.80;;;;;;2353496;53;141331;-70
2022/06/17 06:05:12;;;;;;;1.98;0.70;;;21.10;44.80;;;;;;2290429;55;21004;-71
2022/06/17 06:07:39;;;;;;;2.92;1.10;;;21.10;44.60;;;;;;2290591;55;21089;-71
2022/06/17 06:10:07;;;;;;;2.20;0.82;;;21.20;44.60;;;;;;2345943;54;21454;-71
2022/06/17 06:15:18;;;;;;;1.73;0.80;;;21.40;44.50;;;;;;2292354;55;21022;-75
2022/06/17 06:17:45;;;;;;;2.95;1.10;;;21.50;44.60;;;;;;2293387;55;21096;-75
2022/06/17 06:20:12;;;;;;;2.65;0.90;;;21.50;44.50;;;;;;2289850;55;20984;-73
2022/06/17 06:22:38;;;;;;;1.48;0.80;;;21.60;44.60;;;;;;2431490;54;21544;-72
2022/06/17 06:25:06;;;;;;;2.92;1.05;;;21.70;44.50;;;;;;2342508;54;21016;-74
2022/06/17 06:27:33;;;;;;;2.08;1.00;;;21.70;44.40;;;;;;2293390;55;21069;-70
2022/06/17 06:30:15;;;;;;;2.53;0.90;;;21.80;44.40;;;;;;2294107;55;21025;-73
2022/06/17 06:32:47;;;;;;;2.70;0.88;;;21.80;44.40;;;;;;2290731;55;21008;-74
2022/06/17 06:35:15;;;;;;;1.80;0.75;;;21.90;44.50;;;;;;2290812;55;21004;-71
2022/06/17 06:37:41;;;;;;;2.80;1.08;;;22.00;44.60;;;;;;2290490;55;22315;-71
2022/06/17 06:40:08;;;;;;;3.47;1.00;;;22.00;44.60;;;;;;2294422;55;21074;-71
2022/06/17 06:42:35;;;;;;;1.98;0.93;;;22.10;44.60;;;;;;2291164;55;21872;-71
2022/06/17 06:45:01;;;;;;;2.40;1.23;;;22.10;44.60;;;;;;2524453;54;20960;-71
2022/06/17 06:47:28;;;;;;;3.08;1.50;;;22.20;44.90;;;;;;2289808;55;20933;-71
2022/06/17 06:49:54;;;;;;;2.72;1.27;;;22.30;45.00;;;;;;2295637;55;21464;-73
2022/06/17 06:52:21;;;;;;;3.00;1.12;;;22.30;44.80;;;;;;2293108;55;21465;-72
2022/06/17 06:54:49;;;;;;;2.60;0.95;;;22.40;45.00;;;;;;2288050;55;21016;-73
2022/06/17 06:57:16;;;;;;;2.30;1.00;;;22.40;44.90;;;;;;2297428;55;21032;-71
2022/06/17 06:59:59;;;;;;;2.60;1.15;;;22.50;45.00;;;;;;2523561;54;21743;-72
2022/06/17 07:02:26;;;;;;;2.50;0.93;;;22.60;45.10;;;;;;2289877;55;21011;-72
2022/06/17 07:04:52;;;;;;;2.72;1.27;;;22.60;45.00;;;;;;2293375;55;21001;-72
2022/06/17 07:07:18;;;;;;;1.90;0.90;;;22.70;45.00;;;;;;2290317;55;20945;-72
2022/06/17 07:09:44;;;;;;;2.40;0.82;;;22.70;44.90;;;;;;2290821;55;21389;-72
2022/06/17 07:12:17;;;;;;;2.28;1.10;;;22.80;44.80;;;;;;2291023;55;20980;-73
2022/06/17 07:14:43;;;;;;;2.80;1.12;;;22.90;44.90;;;;;;2444529;54;21008;-72
2022/06/17 07:17:10;;;;;;;2.03;1.10;;;23.00;44.90;;;;;;2289708;55;21036;-71
2022/06/17 07:19:36;;;;;;;2.53;1.00;;;23.10;44.80;;;;;;2290924;55;20988;-76
2022/06/17 07:22:03;;;;;;;2.60;1.10;;;23.10;44.80;;;;;;2525310;54;21004;-72
2022/06/17 07:24:29;;;;;;;2.37;1.05;;;23.20;44.60;;;;;;2290180;55;20932;-74
2022/06/17 07:26:56;;;;;;;2.30;0.95;;;23.30;44.50;;;;;;2290482;55;20960;-72
2022/06/17 07:29:22;;;;;;;2.00;0.90;;;23.40;44.40;;;;;;2525361;54;21022;-73
2022/06/17 07:31:49;;;;;;;2.17;1.10;;;23.40;44.20;;;;;;2468378;54;21046;-75
2022/06/17 07:34:16;;;;;;;2.00;0.85;;;23.50;44.10;;;;;;2272569;55;20949;-71
2022/06/17 07:43:02;;;;;;;2.30;0.93;;;23.80;44.30;;;;;;2290680;55;21044;-76
2022/06/17 07:45:29;;;;;;;2.28;0.90;;;23.90;44.10;;;;;;2293346;55;20941;-72
2022/06/17 07:47:55;;;;;;;2.25;1.02;;;23.90;43.90;;;;;;2292881;55;20969;-72
2022/06/17 07:50:28;;;;;;;2.58;0.82;;;24.10;43.80;;;;;;2290611;55;20957;-72
2022/06/17 07:52:54;;;;;;;2.33;0.93;;;24.10;43.60;;;;;;2292403;55;21028;-73
2022/06/17 07:55:20;;;;;;;3.42;1.20;;;24.20;43.50;;;;;;2340686;54;21005;-75
2022/06/17 07:57:47;;;;;;;2.37;0.95;;;24.30;43.70;;;;;;2476221;53;20961;-73
2022/06/17 08:00:23;;;;;;;1.98;0.80;;;24.30;43.60;;;;;;2318861;54;20981;-72
2022/06/17 08:02:50;;;;;;;2.40;0.93;;;24.40;43.60;;;;;;2319199;54;20964;-72
2022/06/17 08:05:17;;;;;;;2.25;1.00;;;24.50;43.60;;;;;;2290386;55;20955;-73
2022/06/17 08:07:44;;;;;;;3.12;1.15;;;24.60;43.70;;;;;;2294192;55;20949;-73
2022/06/17 08:10:13;;;;;;;2.00;0.85;;;24.70;43.60;;;;;;2292770;55;21008;-74
2022/06/17 08:12:40;;;;;;;1.87;0.75;;;24.80;43.60;;;;;;2290867;54;20988;-74
2022/06/17 08:15:06;;;;;;;2.80;0.90;;;24.90;43.60;;;;;;2472748;54;20953;-73
2022/06/17 08:17:33;;;;;;;1.92;0.88;;;25.00;43.40;;;;;;2293043;55;20989;-74
2022/06/17 08:20:00;;;;;;;2.50;0.95;;;25.00;43.30;;;;;;2383257;54;20948;-72
2022/06/17 08:22:29;;;;;;;1.95;1.00;;;25.10;43.30;;;;;;2290422;55;20901;-73
2022/06/17 08:24:56;;;;;;;3.67;1.20;;;25.20;43.20;;;;;;2290683;55;20928;-73
2022/06/17 08:27:22;;;;;;;1.95;0.82;;;25.30;43.10;;;;;;2290465;55;20928;-72
2022/06/17 08:29:50;;;;;;;2.37;1.08;;;25.40;43.20;;;;;;2293726;55;21108;-73
2022/06/17 08:35:06;;;;;;;4.12;1.00;;;25.60;43.30;;;;;;2410247;54;21274;-73
2022/06/17 08:37:32;;;;;;;3.03;0.93;;;25.70;43.10;;;;;;2283831;55;21536;-76
2022/06/17 08:39:59;;;;;;;3.22;1.00;;;25.80;43.00;;;;;;2281445;55;20967;-71
2022/06/17 08:42:42;;;;;;;2.42;1.00;;;25.90;42.80;;;;;;2515367;54;20955;-71
2022/06/17 08:45:48;;;;;;;2.75;1.10;;;25.90;42.60;;;;;;2281495;55;20944;-71
2022/06/17 08:49:33;;;;;;;2.08;1.00;;;26.00;42.70;;;;;;2283956;55;20946;-70
2022/06/17 08:53:36;;;;;;;2.10;0.80;;;26.20;42.50;;;;;;2378311;54;20981;-72
2022/06/17 08:58:06;;;;;;;1.65;0.80;;;26.30;42.40;;;;;;2488751;55;21047;-70
2022/06/17 09:00:38;;;;;;;1.98;1.00;;;26.40;42.60;;;;;;2288081;55;21998;-71
2022/06/17 09:03:46;;;;;;;2.25;1.10;;;26.60;42.50;;;;;;2287223;55;20964;-72
2022/06/17 09:06:23;;;;;;;3.20;1.20;;;26.70;42.30;;;;;;2289693;55;20973;-71
2022/06/17 09:09:26;;;;;;;4.40;1.75;;;26.70;42.20;;;;;;2281478;55;21042;-71
2022/06/17 09:13:28;;;;;;;4.20;2.10;;;26.80;42.50;;;;;;2287996;54;21103;-72
2022/06/17 09:17:24;;;;;;;2.70;1.30;;;27.00;42.20;;;;;;2280872;55;20949;-71
2022/06/17 09:19:52;;;;;;;2.05;1.02;;;27.10;42.00;;;;;;2281036;55;20932;-73
2022/06/17 09:22:25;;;;;;;2.60;1.10;;;27.20;41.90;;;;;;2286550;55;20993;-76
2022/06/17 09:24:54;;;;;;;2.50;1.10;;;27.30;41.70;;;;;;2302634;54;20968;-73
2022/06/17 09:27:25;;;;;;;2.10;1.00;;;27.30;41.70;;;;;;2281290;55;20992;-74
2022/06/17 09:30:03;;;;;;;3.80;1.07;;;27.40;41.60;;;;;;2284308;55;20978;-72
2022/06/17 09:34:06;;;;;;;2.45;1.10;;;27.50;41.40;;;;;;2283981;55;20937;-72
2022/06/17 09:36:47;;;;;;;2.03;0.90;;;27.70;41.20;;;;;;2290879;55;20956;-73
2022/06/17 09:39:24;;;;;;;1.92;0.98;;;27.80;41.00;;;;;;2290708;55;20971;-73
2022/06/17 09:42:04;;;;;;;2.40;1.10;;;27.80;40.70;;;;;;2290195;55;20920;-73
2022/06/17 09:44:40;;;;;;;3.28;1.42;;;27.90;40.80;;;;;;2290750;55;20960;-73
2022/06/17 09:47:24;;;;;;;2.92;1.55;;;28.00;40.60;;;;;;2339745;54;20925;-74
2022/06/17 09:49:52;;;;;;;2.05;1.02;;;28.10;40.60;;;;;;2291514;55;22089;-73
2022/06/17 09:52:26;;;;;;;2.35;0.90;;;28.10;40.60;;;;;;2294961;55;20950;-75
2022/06/17 09:54:59;;;;;;;3.12;1.20;;;28.20;40.70;;;;;;2390659;54;20976;-75
2022/06/17 09:57:46;;;;;;;2.10;0.88;;;28.30;40.60;;;;;;2290555;55;20956;-73
2022/06/17 10:00:15;;;;;;;2.33;0.93;;;28.40;40.10;;;;;;2372107;54;20953;-73
2022/06/17 10:03:25;;;;;;;1.98;0.90;;;28.50;40.20;;;;;;2297924;55;21002;-74
2022/06/17 10:06:25;;;;;;;2.72;0.98;;;28.50;40.20;;;;;;2288511;55;20948;-73
2022/06/17 10:09:17;;;;;;;2.08;0.85;;;28.70;39.80;;;;;;2290386;55;21031;-74
2022/06/17 10:18:39;;;;;;;1.92;0.90;;;28.80;39.40;;;;;;2291079;55;21504;-73
2022/06/17 10:21:30;;;;;;;3.25;0.70;;;29.10;39.60;;;;;;2297142;55;20997;-76
2022/06/17 10:27:17;;;;;;;2.45;0.88;;;29.20;39.00;;;;;;2289745;55;21028;-74
2022/06/17 10:30:16;;;;;;;1.80;0.75;;;29.30;39.00;;;;;;2290177;55;20940;-76
2022/06/17 10:32:44;;;;;;;2.00;0.90;;;29.40;38.20;;;;;;2524805;54;20965;-76
2022/06/17 10:35:51;;;;;;;2.15;1.00;;;29.50;38.50;;;;;;2290756;55;20969;-74
2022/06/17 10:38:25;;;;;;;2.05;0.88;;;29.60;38.00;;;;;;2294689;55;20976;-77
2022/06/17 10:40:51;;;;;;;1.87;0.77;;;29.70;37.80;;;;;;2290796;55;20992;-73
2022/06/17 10:43:20;;;;;;;1.70;0.70;;;29.70;38.00;;;;;;2343357;54;20948;-73
2022/06/17 10:45:47;;;;;;;2.15;0.82;;;29.80;38.00;;;;;;2293547;55;20986;-73
2022/06/17 10:49:13;;;;;;;2.42;0.88;;;29.80;37.70;;;;;;2289885;55;21052;-73
2022/06/17 10:51:39;;;;;;;2.17;0.95;;;29.90;37.40;;;;;;2290522;55;21909;-75
2022/06/17 10:54:22;;;;;;;2.65;0.95;;;30.00;37.50;;;;;;2293653;55;21453;-73
2022/06/17 10:57:05;;;;;;;1.92;1.00;;;30.10;37.10;;;;;;2358488;54;21076;-73
2022/06/17 10:59:34;;;;;;;2.75;1.20;;;30.20;37.20;;;;;;2292311;55;20973;-73
2022/06/17 11:02:00;;;;;;;2.55;0.90;;;30.30;37.10;;;;;;2360076;54;21923;-76
2022/06/17 11:04:34;;;;;;;2.08;0.88;;;30.30;37.10;;;;;;2290914;55;21294;-74
2022/06/17 11:07:05;;;;;;;1.50;0.73;;;30.50;36.90;;;;;;2480374;54;22294;-75
2022/06/17 11:09:38;;;;;;;2.55;0.90;;;30.50;36.60;;;;;;2271934;55;20976;-74
2022/06/17 11:12:16;;;;;;;1.75;0.77;;;30.60;36.20;;;;;;2292037;55;21028;-74
2022/06/17 11:15:05;;;;;;;1.90;0.93;;;30.70;35.60;;;;;;2290615;55;20964;-75
2022/06/17 11:17:42;;;;;;;1.65;0.80;;;30.80;35.10;;;;;;2290521;55;20937;-76
2022/06/17 11:20:23;;;;;;;3.33;1.00;;;30.80;35.20;;;;;;2292225;55;20993;-73
2022/06/17 11:23:53;;;;;;;2.78;0.70;;;30.90;34.70;;;;;;2525783;54;21784;-74
2022/06/17 11:26:45;;;;;;;1.58;0.70;;;31.00;35.20;;;;;;2293962;55;20981;-73
2022/06/17 11:29:21;;;;;;;2.07;0.90;;;31.00;35.10;;;;;;2300403;55;21470;-74
2022/06/17 11:31:49;;;;;;;2.05;0.68;;;31.10;34.60;;;;;;2289784;55;21022;-76
2022/06/17 11:34:20;;;;;;;2.53;0.77;;;31.10;34.90;;;;;;2525378;54;20950;-73
2022/06/17 11:36:55;;;;;;;2.45;0.80;;;31.20;35.00;;;;;;2320425;54;20969;-76
2022/06/17 11:39:35;;;;;;;1.52;0.73;;;31.20;34.50;;;;;;2286471;55;21108;-73
2022/06/17 11:42:18;;;;;;;1.73;0.77;;;31.30;34.30;;;;;;2304337;54;21569;-74
2022/06/17 11:45:00;;;;;;;2.03;1.00;;;31.40;34.80;;;;;;2287954;55;21754;-76
2022/06/17 11:47:30;;;;;;;1.83;0.77;;;31.40;34.10;;;;;;2469737;54;21634;-74
2022/06/17 11:50:15;;;;;;;1.40;0.70;;;31.50;34.20;;;;;;2289019;55;21024;-74
2022/06/17 11:52:42;;;;;;;1.92;0.70;;;31.50;33.40;;;;;;2523396;54;20960;-74
2022/06/17 11:55:09;;;;;;;3.92;1.00;;;31.60;33.80;;;;;;2296083;55;20990;-73
2022/06/17 11:57:37;;;;;;;2.53;0.88;;;31.60;33.40;;;;;;2333981;54;21491;-74
2022/06/17 12:00:37;;;;;;;1.98;0.80;;;31.70;33.30;;;;;;2374941;54;20988;-74
2022/06/17 12:03:04;;;;;;;2.85;0.82;;;31.70;33.10;;;;;;2290858;55;21013;-74
2022/06/17 12:05:31;;;;;;;1.48;0.57;;;31.80;33.60;;;;;;2286507;55;20988;-72
2022/06/17 12:08:10;;;;;;;1.33;0.68;;;31.80;33.20;;;;;;2284745;55;21766;-74
2022/06/17 12:10:52;;;;;;;1.40;0.60;;;31.90;33.00;;;;;;2284629;55;21290;-74
2022/06/17 12:13:31;;;;;;;2.15;0.80;;;32.00;32.50;;;;;;2295559;54;21090;-75
2022/06/17 12:17:51;;;;;;;1.70;0.60;;;32.00;31.80;;;;;;2282869;55;21003;-74
2022/06/17 12:21:56;;;;;;;1.90;0.57;;;32.10;32.10;;;;;;2285670;55;20961;-74
2022/06/17 12:24:49;;;;;;;1.45;0.55;;;32.20;32.10;;;;;;2280954;55;20976;-75
2022/06/17 12:27:25;;;;;;;1.70;0.80;;;32.20;31.50;;;;;;2283742;55;21417;-77
2022/06/17 12:30:12;;;;;;;1.27;0.65;;;32.20;31.30;;;;;;2286410;55;20968;-77
2022/06/17 12:32:56;;;;;;;1.75;0.60;;;32.20;31.30;;;;;;2289431;55;22196;-77
2022/06/17 12:35:48;;;;;;;1.70;0.70;;;32.20;30.60;;;;;;2286610;55;21576;-76
2022/06/17 12:38:42;;;;;;;1.10;0.50;;;32.30;30.50;;;;;;2285561;55;20960;-75
2022/06/17 12:41:20;;;;;;;1.42;0.70;;;32.30;30.40;;;;;;2285882;55;20953;-71
2022/06/17 12:46:26;;;;;;;2.47;0.80;;;32.30;30.30;;;;;;2360561;54;20977;-75
2022/06/17 12:53:54;;;;;;;1.17;0.50;;;32.30;30.50;;;;;;2285703;55;21573;-74
2022/06/17 12:56:58;;;;;;;1.55;0.60;;;32.40;31.10;;;;;;2288702;55;21430;-74
2022/06/17 13:01:16;;;;;;;1.10;0.55;;;32.50;30.20;;;;;;2285644;55;20936;-74
2022/06/17 13:06:59;;;;;;;1.12;0.52;;;32.50;30.50;;;;;;2397006;54;20981;-74
2022/06/17 13:10:59;;;;;;;1.02;0.40;;;32.60;30.70;;;;;;2280364;55;20987;-72
2022/06/17 13:15:20;;;;;;;0.50;0.40;;;32.60;30.90;;;;;;2283178;55;21538;-74
2022/06/17 13:18:04;;;;;;;1.35;0.52;;;32.70;30.90;;;;;;2260848;55;1320033;-73
2022/06/17 13:21:21;;;;;;;1.30;0.55;;;32.80;29.90;;;;;;2286507;55;20989;-74
2022/06/17 13:24:02;;;;;;;1.20;0.50;;;32.80;29.70;;;;;;2284727;55;20944;-73
2022/06/17 13:26:56;;;;;;;1.27;0.52;;;32.80;29.40;;;;;;2349404;54;22290;-78
2022/06/17 13:30:48;;;;;;;1.80;0.68;;;32.90;29.30;;;;;;2293798;55;20981;-74
2022/06/17 13:34:23;;;;;;;1.15;0.50;;;32.90;29.80;;;;;;2288065;55;20945;-73
2022/06/17 13:39:17;;;;;;;1.92;0.60;;;33.00;29.50;;;;;;2287414;55;20969;-74
2022/06/17 13:41:46;;;;;;;1.87;0.55;;;33.00;29.40;;;;;;2287006;55;20967;-78
2022/06/17 13:45:29;;;;;;;1.70;0.62;;;33.10;29.50;;;;;;2286927;55;20956;-77
2022/06/17 13:48:07;;;;;;;0.88;0.40;;;33.20;29.30;;;;;;2289421;55;21059;-74
2022/06/17 13:52:24;;;;;;;3.10;0.90;;;33.20;29.40;;;;;;2294588;55;21069;-77
2022/06/17 13:57:29;;;;;;;2.12;0.60;;;33.30;29.20;;;;;;2292321;55;20933;-74
2022/06/17 13:59:58;;;;;;;2.20;0.40;;;33.40;29.30;;;;;;2288552;55;20984;-78
2022/06/17 14:02:29;;;;;;;1.05;0.50;;;33.50;29.00;;;;;;2288375;55;21538;-74
2022/06/17 14:05:27;;;;;;;1.20;0.60;;;33.50;28.60;;;;;;2291170;55;21004;-74
2022/06/17 14:08:01;;;;;;;1.30;0.60;;;33.50;28.40;;;;;;2291949;55;20953;-74
2022/06/17 14:11:49;;;;;;;1.27;0.60;;;33.50;28.60;;;;;;2288862;55;21013;-74
2022/06/17 14:14:34;;;;;;;1.65;0.50;;;33.60;28.60;;;;;;2295764;55;21009;-73
2022/06/17 14:17:21;;;;;;;1.52;0.60;;;33.70;28.10;;;;;;2287330;55;21874;-74
2022/06/17 14:19:55;;;;;;;1.42;0.50;;;33.70;28.00;;;;;;2288535;55;21036;-74
2022/06/17 14:22:38;;;;;;;1.55;0.50;;;33.70;27.90;;;;;;2403154;54;21048;-74
2022/06/17 14:26:10;;;;;;;4.20;0.55;;;33.80;27.60;;;;;;2288675;55;21853;-74
2022/06/17 14:29:24;;;;;;;1.80;0.50;;;33.80;28.00;;;;;;2288353;55;21616;-74
2022/06/17 14:31:55;;;;;;;2.65;1.45;;;33.90;27.90;;;;;;2469048;54;21021;-74
2022/06/17 14:34:26;;;;;;;;;;;33.90;27.90;;;;;;2292428;55;21496;-74
2022/06/17 14:37:04;;;;;;;0.88;0.50;;;34.00;28.10;;;;;;2283162;55;20603;-74
2022/06/17 14:39:48;;;;;;;1.75;0.70;;;34.00;27.60;;;;;;2286203;55;20944;-74
2022/06/17 14:42:27;;;;;;;1.20;0.52;;;34.00;27.20;;;;;;2384903;54;20956;-75